< < Back
Terminal Aerodrome Forecast


Current Version              Previous Versions:   1  2  3  4  5  6  7  8  9  

Terminal Aerodrome Forecast

060
FTUS42 KTAE 031120
TAFVLD
TAF
KVLD 031120Z 0312/0412 VRB03KT P6SM SKC
     FM031400 15005KT P6SM SKC
     FM040100 12003KT P6SM SKC=

Latest METAR

604
SAUS70 KWBC 032000 RRM
MTRVLD
METAR KVLD 031953Z 00000KT 10SM CLR 28/09 A3014 RMK AO2 SLP213
T02780094


USA.gov is the U.S. government's official web portal to all federal, state and local government web resources and services.